createdAt,value
2018-08-23T00:01:30.529Z,6.83
2018-08-23T00:04:05.001Z,6.83
2018-08-23T00:06:34.527Z,6.67
2018-08-23T00:09:04.929Z,7.00
2018-08-23T00:11:38.514Z,6.67
2018-08-23T00:14:07.587Z,6.80
2018-08-23T00:16:44.361Z,7.50
2018-08-23T00:19:13.577Z,7.07
2018-08-23T00:21:44.630Z,6.70
2018-08-23T00:24:24.192Z,6.57
2018-08-23T00:26:55.573Z,7.07
2018-08-23T00:29:26.658Z,6.90
2018-08-23T00:32:05.102Z,7.10
2018-08-23T00:34:35.518Z,7.30
2018-08-23T00:37:05.198Z,6.33
2018-08-23T00:39:34.302Z,6.77
2018-08-23T00:42:05.093Z,7.00
2018-08-23T00:44:51.077Z,7.13
2018-08-23T00:47:20.662Z,6.90
2018-08-23T00:49:49.903Z,7.00
2018-08-23T00:52:21.313Z,7.00
2018-08-23T00:54:50.709Z,7.23
2018-08-23T00:57:19.791Z,6.57
2018-08-23T00:59:53.092Z,7.27
2018-08-23T01:02:22.475Z,7.40
2018-08-23T01:04:51.536Z,7.10
2018-08-23T01:07:22.408Z,6.00
2018-08-23T01:09:51.501Z,7.47
2018-08-23T01:12:20.827Z,6.83
2018-08-23T01:14:51.990Z,7.07
2018-08-23T01:17:21.090Z,7.03
2018-08-23T01:20:00.601Z,6.70
2018-08-23T01:22:29.851Z,6.20
2018-08-23T01:25:00.392Z,6.90
2018-08-23T01:27:35.192Z,6.80
2018-08-23T01:30:04.343Z,7.80
2018-08-23T01:32:33.969Z,6.90
2018-08-23T01:35:03.297Z,7.63
2018-08-23T01:37:36.381Z,6.27
2018-08-23T01:40:07.500Z,6.73
2018-08-23T01:42:37.959Z,7.00
2018-08-23T01:45:08.563Z,6.40
2018-08-23T01:47:53.868Z,7.17
2018-08-23T01:50:23.108Z,8.63
2018-08-23T01:52:53.513Z,7.70
2018-08-23T01:55:23.660Z,6.70
2018-08-23T01:57:52.977Z,6.53
2018-08-23T02:00:26.272Z,7.50
2018-08-23T02:02:55.990Z,8.00
2018-08-23T02:05:25.083Z,7.20
2018-08-23T02:07:54.305Z,8.37
2018-08-23T02:10:23.575Z,8.20
2018-08-23T02:12:55.173Z,7.60
2018-08-23T02:15:24.463Z,7.90
2018-08-23T02:17:55.561Z,6.63
2018-08-23T02:20:25.763Z,7.80
2018-08-23T02:22:55.392Z,7.40
2018-08-23T02:25:24.782Z,7.40
2018-08-23T02:28:02.220Z,7.73
2018-08-23T02:30:48.920Z,7.70
2018-08-23T02:33:18.429Z,8.13
2018-08-23T02:35:59.195Z,7.43
2018-08-23T02:38:29.519Z,8.17
2018-08-23T02:40:58.693Z,8.57
2018-08-23T02:43:27.787Z,7.73
2018-08-23T02:45:56.916Z,8.17
2018-08-23T02:48:26.219Z,7.90
2018-08-23T02:50:55.308Z,7.77
2018-08-23T02:53:33.305Z,8.30
2018-08-23T02:56:04.989Z,8.83
2018-08-23T02:58:37.580Z,8.47
2018-08-23T03:01:06.647Z,7.90
2018-08-23T03:03:35.740Z,8.67
2018-08-23T03:06:04.818Z,8.33
2018-08-23T03:08:42.522Z,7.73
2018-08-23T03:11:11.887Z,9.20
2018-08-23T03:13:43.423Z,8.87
2018-08-23T03:16:13.053Z,8.57
2018-08-23T03:18:42.708Z,8.07
2018-08-23T03:21:11.757Z,7.80
2018-08-23T03:23:44.872Z,7.90
2018-08-23T03:26:14.213Z,7.80
2018-08-23T03:28:43.284Z,9.03
2018-08-23T03:31:12.359Z,7.87
2018-08-23T03:33:41.433Z,8.30
2018-08-23T03:36:10.588Z,8.70
2018-08-23T03:38:39.829Z,8.30
2018-08-23T03:41:08.960Z,8.73
2018-08-23T03:43:38.164Z,8.80
2018-08-23T03:46:07.228Z,8.80
2018-08-23T03:48:36.396Z,9.30
2018-08-23T03:51:05.452Z,8.67
2018-08-23T03:53:47.276Z,8.93
2018-08-23T03:56:17.612Z,7.17
2018-08-23T03:58:46.728Z,8.30
2018-08-23T04:01:16.427Z,7.80
2018-08-23T04:03:45.544Z,8.77
2018-08-23T04:06:37.495Z,8.53
2018-08-23T04:09:08.957Z,8.60
2018-08-23T04:11:38.028Z,9.27
2018-08-23T04:14:07.088Z,8.57
2018-08-23T04:16:36.156Z,8.80
2018-08-23T04:19:05.294Z,10.03
2018-08-23T04:21:34.476Z,9.50
2018-08-23T04:24:03.677Z,9.93
2018-08-23T04:26:32.804Z,9.10
2018-08-23T04:29:01.901Z,9.07
2018-08-23T04:31:30.952Z,9.87
2018-08-23T04:34:04.172Z,9.60
2018-08-23T04:36:33.957Z,10.00
2018-08-23T04:39:05.966Z,8.57
2018-08-23T04:41:35.085Z,8.67
2018-08-23T04:44:11.117Z,8.47
2018-08-23T04:46:40.193Z,9.70
2018-08-23T04:49:09.373Z,10.53
2018-08-23T04:51:38.464Z,9.43
2018-08-23T04:54:07.564Z,9.07
2018-08-23T04:56:36.657Z,9.53
2018-08-23T04:59:05.937Z,9.70
2018-08-23T05:01:35.032Z,10.37
2018-08-23T05:04:04.207Z,10.50
2018-08-23T05:06:33.317Z,10.23
2018-08-23T05:09:02.404Z,9.87
2018-08-23T05:11:31.460Z,10.23
2018-08-23T05:14:00.606Z,9.50
2018-08-23T05:16:29.937Z,10.33
2018-08-23T05:18:59.045Z,10.20
2018-08-23T05:21:28.268Z,9.40
2018-08-23T05:24:16.426Z,9.00
2018-08-23T05:26:45.520Z,11.33
2018-08-23T05:29:14.692Z,9.50
2018-08-23T05:31:44.180Z,11.13
2018-08-23T05:34:13.341Z,10.57
2018-08-23T05:36:42.533Z,10.40
2018-08-23T05:39:11.601Z,10.80
2018-08-23T05:41:40.837Z,10.10
2018-08-23T05:44:15.600Z,9.57
2018-08-23T05:46:48.969Z,9.20
2018-08-23T05:49:18.375Z,10.27
2018-08-23T05:51:47.504Z,10.10
2018-08-23T05:54:16.608Z,9.83
2018-08-23T05:56:45.676Z,10.20
2018-08-23T05:59:18.384Z,10.40
2018-08-23T06:01:48.158Z,11.50
2018-08-23T06:04:18.276Z,11.20
2018-08-23T06:06:47.387Z,12.87
2018-08-23T06:09:16.775Z,10.93
2018-08-23T06:11:45.868Z,10.97
2018-08-23T06:14:14.975Z,12.30
2018-08-23T06:16:48.732Z,10.30
2018-08-23T06:19:18.014Z,10.97
2018-08-23T06:21:47.089Z,11.07
2018-08-23T06:24:16.205Z,10.77
2018-08-23T06:26:50.111Z,10.57
2018-08-23T06:29:23.413Z,11.07
2018-08-23T06:32:02.586Z,10.73
2018-08-23T06:34:36.536Z,10.47
2018-08-23T06:37:05.761Z,10.50
2018-08-23T06:39:34.912Z,11.97
2018-08-23T06:42:04.422Z,10.70
2018-08-23T06:44:37.880Z,11.10
2018-08-23T06:47:07.029Z,10.30
2018-08-23T06:49:36.140Z,10.90
2018-08-23T06:52:09.454Z,10.40
2018-08-23T06:54:38.936Z,11.80
2018-08-23T06:57:08.126Z,11.70
2018-08-23T06:59:37.919Z,11.77
2018-08-23T07:02:07.530Z,12.53
2018-08-23T07:04:36.908Z,11.50
2018-08-23T07:07:06.021Z,12.60
2018-08-23T07:09:40.679Z,12.40
2018-08-23T07:12:15.283Z,11.17
2018-08-23T07:14:46.180Z,12.30
2018-08-23T07:17:20.911Z,12.60
2018-08-23T07:19:50.799Z,12.57
2018-08-23T07:22:22.121Z,12.50
2018-08-23T07:24:52.652Z,11.43
2018-08-23T07:27:22.409Z,10.30
2018-08-23T07:29:55.695Z,11.20
2018-08-23T07:32:26.038Z,11.87
2018-08-23T07:35:01.571Z,11.80
2018-08-23T07:37:31.869Z,13.10
2018-08-23T07:40:06.579Z,12.90
2018-08-23T07:42:36.250Z,12.93
2018-08-23T07:45:06.044Z,12.93
2018-08-23T07:47:38.836Z,12.60
2018-08-23T07:50:08.515Z,14.50
2018-08-23T07:52:38.411Z,14.40
2018-08-23T07:55:07.761Z,13.67
2018-08-23T07:57:37.860Z,14.60
2018-08-23T08:00:42.595Z,15.13
2018-08-23T08:03:13.039Z,16.30
2018-08-23T08:05:43.545Z,18.13
2018-08-23T08:08:13.552Z,16.53
2018-08-23T08:10:46.224Z,20.47
2018-08-23T08:13:15.344Z,20.10
2018-08-23T08:15:44.465Z,23.17
2018-08-23T08:18:23.044Z,20.80
2018-08-23T08:21:04.513Z,20.33
2018-08-23T08:23:33.845Z,20.50
2018-08-23T08:26:03.001Z,21.90
2018-08-23T08:28:32.103Z,22.60
2018-08-23T08:31:02.161Z,22.10
2018-08-23T08:33:34.215Z,22.77
2018-08-23T08:36:04.425Z,21.13
2018-08-23T08:38:34.161Z,20.63
2018-08-23T08:41:03.257Z,24.33
2018-08-23T08:43:32.449Z,21.87
2018-08-23T08:46:01.634Z,20.80
2018-08-23T08:48:31.873Z,21.60
2018-08-23T08:51:32.403Z,21.43
2018-08-23T08:54:02.834Z,26.07
2018-08-23T08:56:36.407Z,21.30
2018-08-23T08:59:05.498Z,21.17
2018-08-23T09:01:34.680Z,20.17
2018-08-23T09:04:04.225Z,24.00
2018-08-23T09:06:45.993Z,23.80
2018-08-23T09:09:30.733Z,22.17
2018-08-23T09:12:02.816Z,19.77
2018-08-23T09:14:32.157Z,24.00
2018-08-23T09:17:15.829Z,23.90
2018-08-23T09:19:57.298Z,23.10
2018-08-23T09:22:26.893Z,23.00
2018-08-23T09:24:56.518Z,22.20
2018-08-23T09:27:25.743Z,24.60
2018-08-23T09:29:55.001Z,23.57
2018-08-23T09:32:27.593Z,23.20
2018-08-23T09:34:57.933Z,21.93
2018-08-23T09:37:28.045Z,23.20
2018-08-23T09:39:57.483Z,19.70
2018-08-23T09:42:31.334Z,18.17
2018-08-23T09:45:07.207Z,21.00
2018-08-23T09:47:36.489Z,18.63
2018-08-23T09:50:05.923Z,20.10
2018-08-23T09:52:39.249Z,16.87
2018-08-23T09:55:09.617Z,17.20
2018-08-23T09:57:38.988Z,15.60
2018-08-23T10:00:12.673Z,15.20
2018-08-23T10:02:47.505Z,14.67
2018-08-23T10:05:22.236Z,15.23
2018-08-23T10:07:57.749Z,15.47
2018-08-23T10:10:32.254Z,14.53
2018-08-23T10:13:06.877Z,13.20
2018-08-23T10:15:41.879Z,15.23
2018-08-23T10:18:16.560Z,13.70
2018-08-23T10:20:51.015Z,13.73
2018-08-23T10:23:24.155Z,13.77
2018-08-23T10:25:54.329Z,13.90
2018-08-23T10:28:24.758Z,11.80
2018-08-23T10:30:54.253Z,12.47
2018-08-23T10:33:23.399Z,13.17
2018-08-23T10:35:53.873Z,9.03
2018-08-23T10:38:24.766Z,8.97
2018-08-23T10:40:58.145Z,8.40
2018-08-23T10:43:32.973Z,8.70
2018-08-23T10:46:03.068Z,7.77
2018-08-23T10:48:32.265Z,10.10
2018-08-23T10:51:01.515Z,8.70
2018-08-23T10:53:30.568Z,7.80
2018-08-23T10:55:59.649Z,8.47
2018-08-23T10:58:29.125Z,8.70
2018-08-23T11:00:58.383Z,8.17
2018-08-23T11:03:27.432Z,8.13
2018-08-23T11:05:56.615Z,9.10
2018-08-23T11:08:31.041Z,8.67
2018-08-23T11:11:05.844Z,8.77
2018-08-23T11:13:40.639Z,10.07
2018-08-23T11:16:15.160Z,9.90
2018-08-23T11:18:49.791Z,9.00
2018-08-23T11:21:19.264Z,9.43
2018-08-23T11:23:48.943Z,8.20
2018-08-23T11:26:25.941Z,10.80
2018-08-23T11:28:55.200Z,9.97
2018-08-23T11:32:47.401Z,10.33
2018-08-23T11:35:16.686Z,9.10
2018-08-23T11:37:45.756Z,8.83
2018-08-23T11:40:15.141Z,9.50
2018-08-23T11:42:44.492Z,10.43
2018-08-23T11:45:13.941Z,8.93
2018-08-23T11:47:43.212Z,10.00
2018-08-23T11:50:12.605Z,8.93
2018-08-23T11:52:41.801Z,8.57
2018-08-23T11:55:10.953Z,8.07
2018-08-23T11:57:40.152Z,8.23
2018-08-23T12:00:09.367Z,8.37
2018-08-23T12:02:42.267Z,8.57
2018-08-23T12:05:13.340Z,9.80
2018-08-23T12:07:49.393Z,9.00
2018-08-23T12:10:20.047Z,8.60
2018-08-23T12:12:50.713Z,8.40
2018-08-23T12:15:27.179Z,7.63
2018-08-23T12:17:57.026Z,8.33
2018-08-23T12:20:26.201Z,7.10
2018-08-23T12:22:55.239Z,6.80
2018-08-23T12:25:24.409Z,6.47
2018-08-23T12:28:01.258Z,4.97
2018-08-23T12:30:31.692Z,6.47
2018-08-23T12:33:07.534Z,5.70
2018-08-23T12:35:36.885Z,5.80
2018-08-23T12:38:16.805Z,7.83
2018-08-23T12:40:51.368Z,7.50
2018-08-23T12:43:21.699Z,7.20
2018-08-23T12:45:50.938Z,7.67
2018-08-23T12:48:20.232Z,7.60
2018-08-23T12:50:49.392Z,5.27
2018-08-23T12:53:18.567Z,5.20
2018-08-23T12:55:47.622Z,4.77
2018-08-23T12:58:16.811Z,5.23
2018-08-23T13:00:45.940Z,4.97
2018-08-23T13:03:15.089Z,4.33
2018-08-23T13:05:44.257Z,5.10
2018-08-23T13:08:14.060Z,5.40
2018-08-23T13:10:43.276Z,4.67
2018-08-23T13:13:12.524Z,4.50
2018-08-23T13:15:41.731Z,4.63
2018-08-23T13:18:11.165Z,4.30
2018-08-23T13:20:40.333Z,5.83
2018-08-23T13:23:09.428Z,4.33
2018-08-23T13:25:42.973Z,4.70
2018-08-23T13:28:12.108Z,4.47
2018-08-23T13:30:41.404Z,4.50
2018-08-23T13:33:10.463Z,4.47
2018-08-23T13:35:39.705Z,4.30
2018-08-23T13:38:08.800Z,4.17
2018-08-23T13:40:37.875Z,3.60
2018-08-23T13:43:07.151Z,4.70
2018-08-23T13:45:36.358Z,3.93
2018-08-23T13:48:05.645Z,4.13
2018-08-23T13:50:35.265Z,4.67
2018-08-23T13:53:04.394Z,3.97
2018-08-23T13:55:33.478Z,4.17
2018-08-23T13:58:02.752Z,4.20
2018-08-23T14:00:39.218Z,4.80
2018-08-23T14:03:09.203Z,3.87
2018-08-23T14:05:39.504Z,4.30
2018-08-23T14:08:08.812Z,3.50
2018-08-23T14:10:38.524Z,4.37
2018-08-23T14:13:08.124Z,4.20
2018-08-23T14:15:43.785Z,3.97
2018-08-23T14:18:14.157Z,5.03
2018-08-23T14:20:44.947Z,5.50
2018-08-23T14:23:15.293Z,5.20
2018-08-23T14:25:45.587Z,4.53
2018-08-23T14:28:14.786Z,5.80
2018-08-23T14:30:44.784Z,5.60
2018-08-23T14:33:13.965Z,5.50
2018-08-23T14:35:43.224Z,5.10
2018-08-23T14:38:12.277Z,5.73
2018-08-23T14:40:41.395Z,5.93
2018-08-23T14:43:10.774Z,5.00
2018-08-23T14:45:39.843Z,5.50
2018-08-23T14:48:14.486Z,5.00
2018-08-23T14:50:43.785Z,5.00
2018-08-23T14:53:17.085Z,5.30
2018-08-23T14:55:51.980Z,5.33
2018-08-23T14:58:21.824Z,4.70
2018-08-23T15:00:50.975Z,5.27
2018-08-23T15:03:20.067Z,5.00
2018-08-23T15:05:49.393Z,5.73
2018-08-23T15:08:18.724Z,4.87
2018-08-23T15:10:48.047Z,6.43
2018-08-23T15:13:17.424Z,5.27
2018-08-23T15:15:49.641Z,5.63
2018-08-23T15:18:20.940Z,5.77
2018-08-23T15:20:51.218Z,5.67
2018-08-23T15:23:20.255Z,5.70
2018-08-23T15:25:49.401Z,5.30
2018-08-23T15:28:18.599Z,5.87
2018-08-23T15:30:47.754Z,5.03
2018-08-23T15:33:18.233Z,6.20
2018-08-23T15:35:47.575Z,5.30
2018-08-23T15:38:16.669Z,6.07
2018-08-23T15:40:45.801Z,6.40
2018-08-23T15:43:14.960Z,5.90
2018-08-23T15:45:44.290Z,6.20
2018-08-23T15:48:13.527Z,6.13
2018-08-23T15:50:42.751Z,6.13
2018-08-23T15:53:12.975Z,6.40
2018-08-23T15:55:42.124Z,6.63
2018-08-23T15:58:11.254Z,6.60
2018-08-23T16:00:41.403Z,6.60
2018-08-23T16:03:11.838Z,6.03
2018-08-23T16:05:41.946Z,6.00
2018-08-23T16:08:11.848Z,6.90
2018-08-23T16:10:40.923Z,6.50
2018-08-23T16:13:10.039Z,6.10
2018-08-23T16:15:39.097Z,5.90
2018-08-23T16:18:13.557Z,6.10
2018-08-23T16:20:53.649Z,5.70
2018-08-23T16:23:22.903Z,5.43
2018-08-23T16:25:52.099Z,5.27
2018-08-23T16:28:21.221Z,6.20
2018-08-23T16:30:50.317Z,5.87
2018-08-23T16:33:19.407Z,5.27
2018-08-23T16:35:48.735Z,4.63
2018-08-23T16:38:17.947Z,5.00
2018-08-23T16:40:47.289Z,4.53
2018-08-23T16:43:16.508Z,4.90
2018-08-23T16:45:45.624Z,5.20
2018-08-23T16:48:14.720Z,4.70
2018-08-23T16:50:43.970Z,4.67
2018-08-23T16:53:13.149Z,4.57
2018-08-23T16:55:42.312Z,5.20
2018-08-23T16:58:12.592Z,4.23
2018-08-23T17:00:41.715Z,4.57
2018-08-23T17:03:11.393Z,4.73
2018-08-23T17:05:40.539Z,3.93
2018-08-23T17:08:09.691Z,3.90
2018-08-23T17:10:38.937Z,3.77
2018-08-23T17:13:13.092Z,4.80
2018-08-23T17:15:47.812Z,3.50
2018-08-23T17:18:17.129Z,3.33
2018-08-23T17:20:46.153Z,3.50
2018-08-23T17:23:15.355Z,4.00
2018-08-23T17:25:44.414Z,4.17
2018-08-23T17:28:13.606Z,4.13
2018-08-23T17:30:42.947Z,4.30
2018-08-23T17:33:11.992Z,4.20
2018-08-23T17:35:41.120Z,3.80
2018-08-23T17:38:10.241Z,3.70
2018-08-23T17:40:39.308Z,4.10
2018-08-23T17:43:08.404Z,4.17
2018-08-23T17:45:37.530Z,3.83
2018-08-23T17:48:06.694Z,3.20
2018-08-23T17:50:35.920Z,3.77
2018-08-23T17:53:05.424Z,4.13
2018-08-23T17:55:34.586Z,3.30
2018-08-23T17:58:03.677Z,3.60
2018-08-23T18:00:33.059Z,3.87
2018-08-23T18:03:02.217Z,3.40
2018-08-23T18:05:31.524Z,4.07
2018-08-23T18:08:00.620Z,3.77
2018-08-23T18:10:29.736Z,3.50
2018-08-23T18:12:58.828Z,4.23
2018-08-23T18:22:34.090Z,3.93
2018-08-23T18:25:03.175Z,3.70
2018-08-23T18:27:32.280Z,4.03
2018-08-23T18:30:01.392Z,4.30
2018-08-23T18:32:30.690Z,3.63
2018-08-23T18:34:59.683Z,4.13
2018-08-23T18:37:28.944Z,4.50
2018-08-23T18:39:57.997Z,3.63
2018-08-23T18:42:27.153Z,3.50
2018-08-23T18:44:56.265Z,4.10
2018-08-23T18:47:25.521Z,4.20
2018-08-23T18:49:54.590Z,4.07
2018-08-23T18:52:23.736Z,3.90
2018-08-23T18:54:53.040Z,4.13
2018-08-23T18:57:22.212Z,4.03
2018-08-23T18:59:51.520Z,4.20
2018-08-23T19:02:22.754Z,4.00
2018-08-23T19:04:52.220Z,4.60
2018-08-23T19:07:26.832Z,5.20
2018-08-23T19:09:59.445Z,5.60
2018-08-23T19:12:29.634Z,5.20
2018-08-23T19:14:58.718Z,6.00
2018-08-23T19:17:38.075Z,4.40
2018-08-23T19:20:08.211Z,6.23
2018-08-23T19:22:37.664Z,6.80
2018-08-23T19:25:08.224Z,5.70
2018-08-23T19:27:37.617Z,4.63
2018-08-23T19:30:07.766Z,4.80
2018-08-23T19:32:36.887Z,5.13
2018-08-23T19:35:06.053Z,4.23
2018-08-23T19:37:35.150Z,4.47
2018-08-23T19:40:04.302Z,4.17
2018-08-23T19:42:33.567Z,3.70
2018-08-23T19:45:02.976Z,4.83
2018-08-23T19:47:37.534Z,3.97
2018-08-23T19:50:08.478Z,3.80
2018-08-23T19:52:37.612Z,3.77
2018-08-23T19:55:08.392Z,4.70
2018-08-23T19:57:37.726Z,5.37
2018-08-23T20:00:08.729Z,4.60
2018-08-23T20:02:38.078Z,5.90
2018-08-23T20:05:07.289Z,4.47
2018-08-23T20:07:36.385Z,4.53
2018-08-23T20:10:05.604Z,3.80
2018-08-23T20:12:34.819Z,4.10
2018-08-23T20:15:03.999Z,4.60
2018-08-23T20:17:33.172Z,4.50
2018-08-23T20:20:02.402Z,5.47
2018-08-23T20:22:31.594Z,4.93
2018-08-23T20:25:01.007Z,5.33
2018-08-23T20:27:30.323Z,5.07
2018-08-23T20:29:59.637Z,4.40
2018-08-23T20:32:29.276Z,4.83
2018-08-23T20:34:58.446Z,5.03
2018-08-23T20:37:27.700Z,4.90
2018-08-23T20:39:57.160Z,5.23
2018-08-23T20:42:26.846Z,5.73
2018-08-23T20:44:56.050Z,5.27
2018-08-23T20:47:25.229Z,5.10
2018-08-23T20:49:54.456Z,6.10
2018-08-23T20:52:23.702Z,5.80
2018-08-23T20:54:52.897Z,5.97
2018-08-23T20:57:22.035Z,6.33
2018-08-23T20:59:51.175Z,5.53
2018-08-23T21:02:20.385Z,5.90
2018-08-23T21:04:49.537Z,6.40
2018-08-23T21:07:18.695Z,5.60
2018-08-23T21:09:47.865Z,5.43
2018-08-23T21:12:16.964Z,5.97
2018-08-23T21:14:46.077Z,5.43
2018-08-23T21:17:15.175Z,5.67
2018-08-23T21:19:44.446Z,5.70
2018-08-23T21:22:13.524Z,5.77
2018-08-23T21:24:42.633Z,5.00
2018-08-23T21:27:11.749Z,5.90
2018-08-23T21:29:40.796Z,5.63
2018-08-23T21:32:09.879Z,5.87
2018-08-23T21:34:38.981Z,5.37
2018-08-23T21:37:08.047Z,5.07
2018-08-23T21:39:37.213Z,5.67
2018-08-23T21:42:06.455Z,6.13
2018-08-23T21:44:36.395Z,6.30
2018-08-23T21:47:06.449Z,5.90
2018-08-23T21:49:35.606Z,6.53
2018-08-23T21:52:04.741Z,5.90
2018-08-23T21:54:33.831Z,6.33
2018-08-23T21:57:02.932Z,5.97
2018-08-23T21:59:32.083Z,6.73
2018-08-23T22:02:06.641Z,6.73
2018-08-23T22:04:41.089Z,6.40
2018-08-23T22:07:10.561Z,7.73
2018-08-23T22:09:39.978Z,6.33
2018-08-23T22:12:09.144Z,6.10
2018-08-23T22:14:38.381Z,6.73
2018-08-23T22:17:08.378Z,6.57
2018-08-23T22:19:37.652Z,6.67
2018-08-23T22:22:06.961Z,7.00
2018-08-23T22:24:36.164Z,7.50
2018-08-23T22:27:06.005Z,7.20
2018-08-23T22:29:36.292Z,6.70
2018-08-23T22:32:05.901Z,6.27
2018-08-23T22:34:35.401Z,6.40
2018-08-23T22:37:04.788Z,6.63
2018-08-23T22:39:34.082Z,5.80
2018-08-23T22:42:03.333Z,6.50
2018-08-23T22:44:32.528Z,7.33
2018-08-23T22:47:01.701Z,7.87
2018-08-23T22:49:30.970Z,6.63
2018-08-23T22:52:00.289Z,6.77
2018-08-23T22:54:29.472Z,6.73
2018-08-23T22:56:59.013Z,6.87
2018-08-23T22:59:28.175Z,7.37
2018-08-23T23:01:58.218Z,6.63
2018-08-23T23:04:28.592Z,6.40
2018-08-23T23:06:59.156Z,7.10
2018-08-23T23:09:28.375Z,7.03
2018-08-23T23:11:57.644Z,5.97
2018-08-23T23:14:27.724Z,6.23
2018-08-23T23:16:57.135Z,5.90
2018-08-23T23:19:26.482Z,6.70
2018-08-23T23:21:55.737Z,6.70
2018-08-23T23:24:30.456Z,7.77
2018-08-23T23:27:00.504Z,7.20
2018-08-23T23:29:30.275Z,6.40
2018-08-23T23:31:59.814Z,7.63
2018-08-23T23:34:29.180Z,7.70
2018-08-23T23:36:58.801Z,7.43
2018-08-23T23:39:28.040Z,7.10
2018-08-23T23:41:57.489Z,6.13
2018-08-23T23:44:26.733Z,7.03
2018-08-23T23:46:55.991Z,7.27
2018-08-23T23:49:25.318Z,6.53
2018-08-23T23:51:55.236Z,5.73
2018-08-23T23:54:24.869Z,6.50
2018-08-23T23:56:54.155Z,5.50
2018-08-23T23:59:23.815Z,5.97
